Ronnskar, Sweden

5:56 AM CET on November 27, 2014 (GMT +0100)
Ojebyn | Change Station
CLOSE
Current Station
Personal Weather Station
Location: Norrbottens Län, NORRBOTTENS LäN
Elevation: 20 ft
Nearby Weather Stations

Elev 20 ft 65.35 °N, 21.41 °E | Updated 15 seconds ago

Light Freezing Fog
Freezing Fog
19.2 °F
Feels Like 19 °F
N
0.0
Wind Variable Wind from North
Gusts 0.0 mph

Today
High -- | Low -- °F
--% Chance of Precip.
Yesterday
High -- | Low -- °F
Precip. -- in
8:51 AM 1:50 PM
Waxing Crescent, 26% visible
Pressure 30.18 in
Visibility 0.1 miles
Clouds
Windchill 19 °F
Dew Point 14 °F
Humidity 78%
Rainfall 0.00 in
Snow Depth Not available.
UV Not available.
Pollen Not available.
Air Quality Not available.
Flu Activity Not available.
METAR ESNS 270450Z 24002KT 0200 R10/0600N R28/0550N FZFG VV002 M03/M03 Q1022

More Conditions Fewer Conditions

Pressure 30.18 in
Visibility 0.1 miles
Clouds
Windchill 19 °F
Dew Point 14 °F
Humidity 78%
Rainfall 0.00 in
Snow Depth Not available.
UV Not available.
Pollen Not available.
Air Quality Not available.
Flu Activity Not available.
METAR ESNS 270450Z 24002KT 0200 R10/0600N R28/0550N FZFG VV002 M03/M03 Q1022

More Conditions Fewer Conditions

10-Day Weather Forecast

Almanac

Astronomy

Nov. 27, 2014 Rise Set
Actual Time
Civil Twilight
Nautical Twilight
Astronomical Twilight
Moon
Length of Visible Light
Length of Day
Tomorrow will be .
, % of the Moon is Illuminated

Today's Extremes

Country Highs Country Lows

Community

WunderPhotos

Upload Photos

1,773,959 photos uploaded!

WunderBlogs® & News

Nearby

Air Quality

  Air Quality AQ Index Pollutant
Not available.

Snow Depth

Station Depth Elevation

Earthquake Activity

City Distance Mag. Time & Date
Minimum magnitude displayed is 2.5.

Coastal Water Temperatures

Place Temperature

Nearby Weather Stations